Time;durP1;ratioP1;P1;durP2;ratioP2;P2;SDS_P1;SDS_P2;PMS_P1;PMS_P2;Temp;Humidity;BMP_temperature;BMP_pressure;BME280_temperature;BME280_humidity;BME280_pressure;Samples;Min_cycle;Max_cycle;Signal;HPM_P1;HPM_P2
2023/09/16 05:46:26;;;;;;;3.23;1.90;;;;;;;;;;21399084;22;20247;-74
2023/09/16 05:56:30;;;;;;;4.20;1.77;;;;;;;;;;20921179;22;20650;-67
2023/09/16 06:06:35;;;;;;;2.93;1.60;;;;;;;;;;20913238;28;20225;-66
2023/09/16 06:16:41;;;;;;;4.53;1.57;;;;;;;;;;20969704;28;20285;-65
2023/09/16 06:26:43;;;;;;;3.53;1.90;;;;;;;;;;20925508;28;20756;-66
2023/09/16 06:36:46;;;;;;;3.27;1.90;;;;;;;;;;20910113;28;20298;-65
2023/09/16 06:46:48;;;;;;;2.57;1.60;;;;;;;;;;20889407;28;20637;-65
2023/09/16 06:56:50;;;;;;;2.63;1.23;;;;;;;;;;20892461;28;20277;-66
2023/09/16 07:06:52;;;;;;;1.90;1.40;;;;;;;;;;20919666;28;20226;-66
2023/09/16 07:16:54;;;;;;;3.23;1.50;;;;;;;;;;20918349;28;20599;-65
2023/09/16 07:26:56;;;;;;;2.63;1.50;;;;;;;;;;20879548;28;20212;-64
2023/09/16 07:36:59;;;;;;;3.00;1.90;;;;;;;;;;20891078;28;20313;-64
2023/09/16 07:47:07;;;;;;;2.20;1.50;;;;;;;;;;20892790;28;20742;-66
2023/09/16 07:57:10;;;;;;;2.50;1.63;;;;;;;;;;20938031;28;20284;-64
2023/09/16 08:07:12;;;;;;;2.80;1.40;;;;;;;;;;20916618;28;20232;-64
2023/09/16 08:17:14;;;;;;;3.60;1.80;;;;;;;;;;20844582;28;20699;-64
2023/09/16 08:27:16;;;;;;;2.70;1.90;;;;;;;;;;20873029;28;20233;-66
2023/09/16 08:37:18;;;;;;;3.70;2.47;;;;;;;;;;20940210;28;20219;-65
2023/09/16 08:47:25;;;;;;;2.47;1.90;;;;;;;;;;20966590;28;20281;-65
2023/09/16 08:57:29;;;;;;;3.30;1.97;;;;;;;;;;20958556;28;20246;-65
2023/09/16 09:07:32;;;;;;;2.70;1.80;;;22.00;99.90;;;;;;20964431;28;20270;-65
2023/09/16 09:17:41;;;;;;;2.83;1.90;;;22.30;99.90;;;;;;20905747;28;20814;-65
2023/09/16 09:27:43;;;;;;;6.70;2.07;;;;;;;;;;20910139;28;20633;-65
2023/09/16 09:37:48;;;;;;;2.50;2.00;;;;;;;;;;20964515;28;20223;-66
2023/09/16 09:47:51;;;;;;;2.38;1.80;;;;;;;;;;20939794;28;20221;-65
2023/09/16 09:57:53;;;;;;;2.27;1.60;;;;;;;;;;20942579;28;20220;-66
2023/09/16 10:07:55;;;;;;;3.33;1.70;;;;;;;;;;20944016;28;20275;-66
2023/09/16 10:17:58;;;;;;;1.98;1.30;;;;;;;;;;20888905;28;20231;-66
2023/09/16 10:28:02;;;;;;;2.85;1.77;;;;;;;;;;20888091;28;20216;-65
2023/09/16 10:38:06;;;;;;;1.90;1.50;;;24.10;99.90;;;;;;20931436;28;20772;-66
2023/09/16 10:48:08;;;;;;;2.30;1.55;;;;;;;;;;20955752;28;20243;-65
2023/09/16 10:58:18;;;;;;;1.90;1.60;;;24.50;99.90;;;;;;20858427;28;20231;-66
2023/09/16 11:08:21;;;;;;;2.67;1.27;;;;;;;;;;20909329;28;20220;-65
2023/09/16 11:18:23;;;;;;;3.00;1.50;;;24.90;99.90;;;;;;20882164;28;20278;-65
2023/09/16 11:28:28;;;;;;;4.20;1.40;;;;;;;;;;20891298;28;20230;-65
2023/09/16 11:38:30;;;;;;;1.83;1.20;;;;;;;;;;20917461;28;20291;-65
2023/09/16 11:48:51;;;;;;;2.65;1.30;;;;;;;;;;20880347;28;20271;-66
2023/09/16 11:58:56;;;;;;;2.00;1.50;;;;;;;;;;20919190;22;20655;-70
2023/09/16 12:08:58;;;;;;;2.33;1.50;;;25.20;99.90;;;;;;20929183;28;20214;-73
2023/09/16 12:19:00;;;;;;;1.95;1.50;;;;;;;;;;20903799;28;20233;-70
2023/09/16 12:29:03;;;;;;;1.98;1.40;;;;;;;;;;20880304;28;20281;-70
2023/09/16 12:39:05;;;;;;;1.80;1.15;;;;;;;;;;20875571;28;20251;-70
2023/09/16 12:49:07;;;;;;;3.67;1.30;;;;;;;;;;20907601;28;20212;-71
2023/09/16 12:59:09;;;;;;;2.55;1.50;;;;;;;;;;20945223;28;20250;-71
2023/09/16 13:09:12;;;;;;;2.25;1.20;;;;;;;;;;20902538;28;20264;-71
2023/09/16 13:19:20;;;;;;;2.42;1.40;;;;;;;;;;20932042;28;20228;-71
2023/09/16 13:29:22;;;;;;;2.22;1.23;;;;;;;;;;20973948;28;20208;-71
2023/09/16 13:39:24;;;;;;;1.75;1.17;;;;;;;;;;20925340;28;20274;-70
2023/09/16 13:49:25;;;;;;;1.52;1.08;;;;;;;;;;20969565;28;20226;-71
2023/09/16 13:59:27;;;;;;;1.50;1.00;;;;;;;;;;20964937;28;20231;-71
2023/09/16 14:09:29;;;;;;;2.00;1.25;;;;;;;;;;20923280;28;20236;-72
2023/09/16 14:19:31;;;;;;;1.92;1.00;;;;;;;;;;20895260;28;20658;-71
2023/09/16 14:29:32;;;;;;;1.38;1.05;;;;;;;;;;20925824;28;20705;-71
2023/09/16 14:39:34;;;;;;;1.88;1.10;;;;;;;;;;20911879;28;20648;-71
2023/09/16 14:49:36;;;;;;;1.88;1.20;;;;;;;;;;20926245;28;20221;-71
2023/09/16 14:59:37;;;;;;;1.13;0.85;;;;;;;;;;20897865;28;20270;-71
2023/09/16 15:09:39;;;;;;;1.05;0.77;;;;;;;;;;20936433;28;20404;-70
2023/09/16 15:19:41;;;;;;;1.45;0.80;;;;;;;;;;20881120;28;20649;-71
2023/09/16 15:29:44;;;;;;;1.35;0.85;;;;;;;;;;20862452;28;20641;-69
2023/09/16 15:39:45;;;;;;;2.40;1.10;;;;;;;;;;20887152;28;20224;-71
2023/09/16 15:49:47;;;;;;;1.80;1.20;;;;;;;;;;20917701;28;20326;-71
2023/09/16 15:59:49;;;;;;;1.55;0.95;;;;;;;;;;20960651;28;20273;-71
2023/09/16 16:09:53;;;;;;;1.63;1.23;;;;;;;;;;20952740;28;20267;-71
2023/09/16 16:19:54;;;;;;;1.15;0.98;;;;;;;;;;20952887;28;20227;-72
2023/09/16 16:29:56;;;;;;;1.70;1.23;;;;;;;;;;20929338;28;20765;-71
2023/09/16 16:39:58;;;;;;;1.20;0.90;;;;;;;;;;20963142;28;20774;-71
2023/09/16 16:50:02;;;;;;;1.23;0.68;;;;;;;;;;20974557;28;20232;-71
2023/09/16 17:00:05;;;;;;;1.23;0.80;;;;;;;;;;20980215;28;20278;-73
2023/09/16 17:10:07;;;;;;;2.28;1.00;;;;;;;;;;20960966;28;20548;-73
2023/09/16 17:20:09;;;;;;;2.45;1.02;;;;;;;;;;20919397;28;20795;-73
2023/09/16 17:30:10;;;;;;;4.40;1.45;;;;;;;;;;20904239;28;20215;-72
2023/09/16 17:40:12;;;;;;;1.70;1.02;;;;;;;;;;20912463;28;20272;-73
2023/09/16 17:50:14;;;;;;;2.15;1.00;;;;;;;;;;20937344;28;20590;-72
2023/09/16 18:00:16;;;;;;;1.85;1.23;;;;;;;;;;20996129;22;20281;-65
2023/09/16 18:10:19;;;;;;;1.95;1.10;;;;;;;;;;20866892;28;20212;-65
2023/09/16 18:20:22;;;;;;;4.43;1.30;;;;;;;;;;20828474;28;20233;-65
2023/09/16 18:30:25;;;;;;;2.60;1.33;;;;;;;;;;20874701;28;20271;-65
2023/09/16 18:40:26;;;;;;;2.22;1.17;;;;;;;;;;20876480;28;20366;-65
2023/09/16 18:50:29;;;;;;;3.97;1.60;;;;;;;;;;20898826;28;20281;-65
2023/09/16 19:00:32;;;;;;;2.63;1.17;;;;;;;;;;20814497;28;20245;-68
2023/09/16 19:10:33;;;;;;;4.15;1.25;;;;;;;;;;20818260;28;20220;-65
2023/09/16 19:20:37;;;;;;;2.58;1.30;;;;;;;;;;20880691;28;20227;-65
2023/09/16 19:30:39;;;;;;;2.05;1.38;;;24.50;99.90;;;;;;20835967;28;20251;-65
2023/09/16 19:40:45;;;;;;;2.78;1.33;;;;;;;;;;20782313;28;20229;-65
2023/09/16 19:50:49;;;;;;;2.00;1.40;;;;;;;;;;20868869;28;20209;-65
2023/09/16 20:01:00;;;;;;;1.98;1.40;;;24.40;99.90;;;;;;20837777;28;20647;-65
2023/09/16 20:11:04;;;;;;;2.13;1.63;;;;;;;;;;20842007;28;20217;-66
2023/09/16 20:21:06;;;;;;;2.00;1.40;;;;;;;;;;20864050;28;20227;-66
2023/09/16 20:31:08;;;;;;;2.45;1.40;;;;;;;;;;20837401;28;20193;-67
2023/09/16 20:41:10;;;;;;;2.80;1.70;;;;;;;;;;20878649;28;20289;-66
2023/09/16 20:51:11;;;;;;;2.15;1.38;;;;;;;;;;20896192;28;20202;-67
2023/09/16 21:01:13;;;;;;;1.98;1.70;;;;;;;;;;20890769;28;20271;-67
2023/09/16 21:11:16;;;;;;;2.20;1.40;;;;;;;;;;20897257;28;20241;-67
2023/09/16 21:21:18;;;;;;;1.92;1.38;;;;;;;;;;20884932;28;20771;-67
2023/09/16 21:31:20;;;;;;;3.75;1.60;;;;;;;;;;20912389;28;20283;-67
2023/09/16 21:41:22;;;;;;;3.08;1.70;;;;;;;;;;20858739;28;20586;-67
2023/09/16 21:51:24;;;;;;;4.03;2.05;;;23.40;99.90;;;;;;20867863;28;20580;-67
2023/09/16 22:01:27;;;;;;;3.13;1.85;;;;;;;;;;20894500;28;20282;-67
2023/09/16 22:11:29;;;;;;;3.70;2.22;;;;;;;;;;20882670;28;20234;-67
2023/09/16 22:21:31;;;;;;;2.67;2.08;;;;;;;;;;20790289;28;20579;-67
2023/09/16 22:31:32;;;;;;;4.38;1.90;;;;;;;;;;20867319;28;20701;-67
2023/09/16 22:41:35;;;;;;;3.65;2.22;;;;;;;;;;20903199;28;20330;-67
2023/09/16 22:51:37;;;;;;;3.72;1.98;;;;;;;;;;20890633;28;20222;-67
2023/09/16 23:01:39;;;;;;;4.65;2.30;;;;;;;;;;20896179;28;20235;-67
2023/09/16 23:11:40;;;;;;;3.80;2.60;;;;;;;;;;20889297;28;20228;-67
2023/09/16 23:21:42;;;;;;;4.72;2.28;;;;;;;;;;20844717;28;20228;-67
2023/09/16 23:31:44;;;;;;;3.00;2.17;;;;;;;;;;20846921;28;20860;-67
2023/09/16 23:41:46;;;;;;;3.13;2.40;;;;;;;;;;20870900;28;20224;-67
2023/09/16 23:51:48;;;;;;;2.50;1.88;;;;;;;;;;20903263;28;20226;-67
